createdAt,value
2022-08-29T00:01:19.075Z,10.90
2022-08-29T00:08:21.989Z,10.10
2022-08-29T00:14:58.091Z,9.90
2022-08-29T00:21:54.498Z,9.80
2022-08-29T00:28:28.968Z,8.50
2022-08-29T00:35:28.007Z,8.80
2022-08-29T00:42:14.230Z,9.30
2022-08-29T00:48:58.063Z,8.10
2022-08-29T00:56:01.179Z,8.60
2022-08-29T01:02:54.583Z,7.50
2022-08-29T01:09:36.694Z,8.00
2022-08-29T01:16:16.189Z,8.10
2022-08-29T01:23:43.428Z,7.60
2022-08-29T01:30:26.874Z,8.10
2022-08-29T01:36:59.861Z,8.20
2022-08-29T01:43:50.902Z,7.40
2022-08-29T01:50:36.323Z,7.70
2022-08-29T01:57:39.367Z,6.70
2022-08-29T02:04:37.304Z,6.40
2022-08-29T02:11:08.609Z,5.80
2022-08-29T02:17:54.505Z,6.20
2022-08-29T02:24:57.957Z,4.60
2022-08-29T02:32:00.457Z,5.90
2022-08-29T02:38:47.968Z,6.00
2022-08-29T02:45:43.801Z,5.80
2022-08-29T02:52:12.291Z,6.10
2022-08-29T02:59:15.343Z,6.10
2022-08-29T03:06:01.016Z,6.00
2022-08-29T03:13:02.628Z,6.10
2022-08-29T03:19:56.717Z,6.60
2022-08-29T03:26:58.740Z,6.40
2022-08-29T03:34:01.427Z,7.40
2022-08-29T03:40:29.978Z,6.90
2022-08-29T03:46:52.373Z,7.20
2022-08-29T03:53:27.385Z,7.00
2022-08-29T03:59:58.207Z,7.60
2022-08-29T04:06:56.626Z,8.30
2022-08-29T04:13:59.507Z,7.70
2022-08-29T04:20:49.532Z,7.20
2022-08-29T04:27:36.711Z,7.90
2022-08-29T04:34:21.178Z,8.30
2022-08-29T04:41:06.516Z,8.80
2022-08-29T04:47:41.933Z,8.70
2022-08-29T04:54:36.973Z,8.70
2022-08-29T05:01:40.438Z,8.70
2022-08-29T05:08:13.295Z,7.80
2022-08-29T05:15:16.672Z,7.60
2022-08-29T05:22:01.429Z,8.10
2022-08-29T05:28:57.907Z,7.60
2022-08-29T05:35:25.652Z,8.90
2022-08-29T05:42:28.820Z,8.00
2022-08-29T05:49:25.028Z,7.60
2022-08-29T05:56:27.430Z,7.60
2022-08-29T06:03:19.122Z,7.60
2022-08-29T06:10:08.552Z,7.50
2022-08-29T06:17:04.619Z,7.90
2022-08-29T06:23:59.108Z,7.90
2022-08-29T06:30:29.943Z,7.50
2022-08-29T06:37:17.137Z,7.40
2022-08-29T06:44:10.012Z,8.30
2022-08-29T06:51:15.422Z,10.80
2022-08-29T06:58:00.940Z,8.10
2022-08-29T07:04:43.736Z,7.70
2022-08-29T07:11:46.767Z,7.70
2022-08-29T07:18:49.863Z,7.70
2022-08-29T07:25:52.778Z,7.80
2022-08-29T07:32:56.098Z,9.30
2022-08-29T07:39:59.055Z,7.90
2022-08-29T07:46:53.726Z,9.50
2022-08-29T07:53:55.896Z,7.80
2022-08-29T08:00:58.144Z,7.50
2022-08-29T08:07:55.437Z,7.80
2022-08-29T08:14:52.952Z,7.20
2022-08-29T08:21:55.794Z,6.80
2022-08-29T08:28:58.636Z,6.90
2022-08-29T08:36:01.571Z,7.40
2022-08-29T08:43:05.708Z,7.30
2022-08-29T08:50:21.225Z,8.00
2022-08-29T08:57:24.741Z,6.90
2022-08-29T09:04:42.040Z,7.90
2022-08-29T09:12:00.345Z,7.20
2022-08-29T09:19:03.632Z,8.60
2022-08-29T09:26:09.121Z,7.40
2022-08-29T09:33:05.115Z,8.70
2022-08-29T09:40:10.974Z,6.20
2022-08-29T09:47:23.339Z,5.80
2022-08-29T09:54:19.687Z,7.20
2022-08-29T10:01:46.762Z,6.40
2022-08-29T10:09:06.143Z,4.80
2022-08-29T10:16:12.383Z,5.40
2022-08-29T10:23:15.349Z,5.30
2022-08-29T10:30:27.440Z,5.00
2022-08-29T10:37:33.551Z,4.10
2022-08-29T10:44:57.862Z,4.10
2022-08-29T10:52:14.470Z,3.60
2022-08-29T10:59:25.780Z,4.10
2022-08-29T11:05:55.930Z,4.20
2022-08-29T11:13:10.854Z,4.10
2022-08-29T11:20:26.447Z,3.90
2022-08-29T11:27:53.652Z,4.20
2022-08-29T11:35:00.554Z,4.10
2022-08-29T11:42:04.774Z,3.20
2022-08-29T11:49:20.020Z,3.10
2022-08-29T11:56:46.241Z,3.40
2022-08-29T12:03:32.256Z,2.80
2022-08-29T12:11:03.032Z,3.30
2022-08-29T12:18:05.973Z,2.60
2022-08-29T12:25:20.033Z,2.50
2022-08-29T12:32:50.323Z,2.70
2022-08-29T12:40:05.634Z,2.30
2022-08-29T12:47:27.044Z,2.70
2022-08-29T12:54:48.190Z,2.40
2022-08-29T13:02:06.186Z,2.10
2022-08-29T13:09:15.415Z,2.60
2022-08-29T13:15:54.695Z,2.70
2022-08-29T13:23:03.830Z,2.40
2022-08-29T13:30:12.632Z,2.20
2022-08-29T13:37:16.279Z,2.50
2022-08-29T13:44:23.468Z,2.10
2022-08-29T13:50:53.049Z,2.20
2022-08-29T13:57:56.272Z,2.80
2022-08-29T14:04:38.245Z,2.60
2022-08-29T14:11:21.957Z,2.40
2022-08-29T14:18:24.944Z,1.90
2022-08-29T14:25:28.361Z,2.60
2022-08-29T14:32:14.278Z,2.70
2022-08-29T14:39:17.952Z,2.40
2022-08-29T14:45:49.310Z,2.10
2022-08-29T14:52:21.531Z,2.40
2022-08-29T14:59:04.303Z,2.10
2022-08-29T15:05:46.845Z,2.10
2022-08-29T15:12:47.426Z,2.40
2022-08-29T15:20:34.374Z,2.10
2022-08-29T15:27:00.784Z,2.40
2022-08-29T15:34:04.837Z,2.60
2022-08-29T15:41:08.251Z,2.10
2022-08-29T15:47:38.125Z,3.00
2022-08-29T15:54:31.475Z,2.20
2022-08-29T16:01:33.734Z,3.70
2022-08-29T16:08:37.199Z,2.40
2022-08-29T16:15:24.345Z,2.50
2022-08-29T16:22:26.699Z,2.50
2022-08-29T16:29:31.055Z,3.30
2022-08-29T16:36:34.476Z,2.80
2022-08-29T16:43:36.401Z,2.30
2022-08-29T16:50:31.564Z,3.10
2022-08-29T16:57:27.431Z,2.90
2022-08-29T17:04:13.250Z,2.50
2022-08-29T17:10:55.862Z,2.80
2022-08-29T17:17:18.280Z,2.70
2022-08-29T17:24:21.586Z,4.80
2022-08-29T17:31:24.692Z,5.50
2022-08-29T17:38:27.654Z,3.40
2022-08-29T17:45:31.029Z,5.30
2022-08-29T17:52:34.124Z,4.70
2022-08-29T17:59:37.179Z,3.10
2022-08-29T18:06:32.312Z,4.20
2022-08-29T18:13:25.415Z,4.00
2022-08-29T18:20:29.402Z,6.10
2022-08-29T18:27:33.803Z,5.00
2022-08-29T18:34:36.763Z,4.80
2022-08-29T18:41:22.401Z,5.90
2022-08-29T18:47:58.689Z,6.50
2022-08-29T18:54:06.378Z,8.80
2022-08-29T19:01:09.862Z,13.40
2022-08-29T19:07:42.844Z,15.20
2022-08-29T19:15:00.870Z,17.60
2022-08-29T19:21:46.812Z,12.70
2022-08-29T19:28:52.165Z,10.00
2022-08-29T19:35:57.424Z,9.40
2022-08-29T19:43:00.220Z,8.40
2022-08-29T19:49:48.004Z,8.00
2022-08-29T19:56:41.684Z,6.60
2022-08-29T20:02:53.059Z,6.80
2022-08-29T20:09:49.124Z,5.30
2022-08-29T20:16:52.638Z,5.60
2022-08-29T20:23:58.304Z,8.20
2022-08-29T20:31:01.729Z,6.60
2022-08-29T20:38:04.863Z,7.70
2022-08-29T20:45:08.335Z,8.10
2022-08-29T20:52:01.164Z,8.30
2022-08-29T20:59:04.178Z,10.90
2022-08-29T21:06:07.840Z,10.00
2022-08-29T21:13:05.038Z,12.30
2022-08-29T21:19:51.894Z,8.60
2022-08-29T21:26:55.081Z,8.20
2022-08-29T21:33:58.461Z,7.80
2022-08-29T21:41:01.434Z,7.80
2022-08-29T21:48:04.256Z,8.40
2022-08-29T21:55:07.140Z,8.90
2022-08-29T22:02:10.470Z,8.70
2022-08-29T22:09:13.696Z,9.30
2022-08-29T22:16:16.088Z,7.30
2022-08-29T22:23:08.170Z,6.90
2022-08-29T22:30:10.570Z,7.00
2022-08-29T22:37:14.161Z,6.90
2022-08-29T22:44:59.786Z,6.20
2022-08-29T22:51:40.490Z,5.90
2022-08-29T22:58:44.076Z,6.60
2022-08-29T23:05:47.724Z,6.30
2022-08-29T23:12:50.747Z,6.40
2022-08-29T23:19:53.825Z,6.60
2022-08-29T23:26:57.115Z,5.90
2022-08-29T23:34:00.299Z,5.40
2022-08-29T23:41:03.686Z,6.00
2022-08-29T23:48:07.033Z,5.50
2022-08-29T23:55:08.895Z,5.80
